sensor_id;sensor_type;location;lat;lon;timestamp;P1;durP1;ratioP1;P2;durP2;ratioP2
9174;SDS011;54374;50.196;8.050;2022-09-06T00:00:54;6.67;;;2.60;;
9174;SDS011;54374;50.196;8.050;2022-09-06T00:03:21;2.95;;;2.50;;
9174;SDS011;54374;50.196;8.050;2022-09-06T00:05:48;3.43;;;2.10;;
9174;SDS011;54374;50.196;8.050;2022-09-06T00:08:16;3.10;;;2.00;;
9174;SDS011;54374;50.196;8.050;2022-09-06T00:10:43;2.27;;;2.07;;
9174;SDS011;54374;50.196;8.050;2022-09-06T00:13:10;2.53;;;2.33;;
9174;SDS011;54374;50.196;8.050;2022-09-06T00:15:37;4.25;;;1.98;;
9174;SDS011;54374;50.196;8.050;2022-09-06T00:18:06;2.75;;;2.40;;
9174;SDS011;54374;50.196;8.050;2022-09-06T00:20:33;2.40;;;2.05;;
9174;SDS011;54374;50.196;8.050;2022-09-06T00:23:05;2.10;;;1.90;;
9174;SDS011;54374;50.196;8.050;2022-09-06T00:25:33;5.43;;;1.83;;
9174;SDS011;54374;50.196;8.050;2022-09-06T00:28:02;2.13;;;1.80;;
9174;SDS011;54374;50.196;8.050;2022-09-06T00:30:31;2.30;;;2.10;;
9174;SDS011;54374;50.196;8.050;2022-09-06T00:32:59;2.50;;;1.93;;
9174;SDS011;54374;50.196;8.050;2022-09-06T00:35:27;3.53;;;2.20;;
9174;SDS011;54374;50.196;8.050;2022-09-06T00:37:55;2.17;;;1.98;;
9174;SDS011;54374;50.196;8.050;2022-09-06T00:40:23;2.72;;;2.22;;
9174;SDS011;54374;50.196;8.050;2022-09-06T00:42:50;2.63;;;2.00;;
9174;SDS011;54374;50.196;8.050;2022-09-06T00:45:17;3.70;;;1.80;;
9174;SDS011;54374;50.196;8.050;2022-09-06T00:47:45;3.33;;;2.27;;
9174;SDS011;54374;50.196;8.050;2022-09-06T00:50:14;2.00;;;1.90;;
9174;SDS011;54374;50.196;8.050;2022-09-06T00:52:45;3.37;;;1.80;;
9174;SDS011;54374;50.196;8.050;2022-09-06T00:55:14;2.43;;;2.17;;
9174;SDS011;54374;50.196;8.050;2022-09-06T00:57:42;2.37;;;2.17;;
9174;SDS011;54374;50.196;8.050;2022-09-06T01:00:11;2.60;;;2.40;;
9174;SDS011;54374;50.196;8.050;2022-09-06T01:02:40;3.40;;;2.57;;
9174;SDS011;54374;50.196;8.050;2022-09-06T01:05:08;2.20;;;1.90;;
9174;SDS011;54374;50.196;8.050;2022-09-06T01:07:42;3.73;;;1.90;;
9174;SDS011;54374;50.196;8.050;2022-09-06T01:10:22;5.90;;;2.30;;
9174;SDS011;54374;50.196;8.050;2022-09-06T01:13:06;2.13;;;1.90;;
9174;SDS011;54374;50.196;8.050;2022-09-06T01:15:46;2.30;;;1.87;;
9174;SDS011;54374;50.196;8.050;2022-09-06T01:18:22;2.88;;;2.40;;
9174;SDS011;54374;50.196;8.050;2022-09-06T01:21:03;2.00;;;1.90;;
9174;SDS011;54374;50.196;8.050;2022-09-06T01:23:52;2.40;;;2.10;;
9174;SDS011;54374;50.196;8.050;2022-09-06T01:26:58;2.17;;;1.97;;
9174;SDS011;54374;50.196;8.050;2022-09-06T01:29:58;3.95;;;2.70;;
9174;SDS011;54374;50.196;8.050;2022-09-06T01:32:31;1.65;;;1.55;;
9174;SDS011;54374;50.196;8.050;2022-09-06T01:35:09;3.50;;;2.00;;
9174;SDS011;54374;50.196;8.050;2022-09-06T01:37:43;2.33;;;2.13;;
9174;SDS011;54374;50.196;8.050;2022-09-06T01:40:10;2.55;;;2.00;;
9174;SDS011;54374;50.196;8.050;2022-09-06T01:42:39;2.63;;;2.08;;
9174;SDS011;54374;50.196;8.050;2022-09-06T01:45:11;2.03;;;1.60;;
9174;SDS011;54374;50.196;8.050;2022-09-06T01:47:46;4.17;;;2.00;;
9174;SDS011;54374;50.196;8.050;2022-09-06T01:50:33;5.37;;;2.30;;
9174;SDS011;54374;50.196;8.050;2022-09-06T01:53:11;2.83;;;1.90;;
9174;SDS011;54374;50.196;8.050;2022-09-06T01:55:53;4.27;;;1.83;;
9174;SDS011;54374;50.196;8.050;2022-09-06T01:58:48;2.40;;;1.67;;
9174;SDS011;54374;50.196;8.050;2022-09-06T02:01:26;8.97;;;2.20;;
9174;SDS011;54374;50.196;8.050;2022-09-06T02:04:21;2.03;;;1.70;;
9174;SDS011;54374;50.196;8.050;2022-09-06T02:06:52;2.07;;;1.93;;
9174;SDS011;54374;50.196;8.050;2022-09-06T02:09:29;4.83;;;2.03;;
9174;SDS011;54374;50.196;8.050;2022-09-06T02:12:03;6.10;;;1.77;;
9174;SDS011;54374;50.196;8.050;2022-09-06T02:14:34;2.00;;;1.57;;
9174;SDS011;54374;50.196;8.050;2022-09-06T02:17:04;1.90;;;1.70;;
9174;SDS011;54374;50.196;8.050;2022-09-06T02:19:34;2.43;;;1.60;;
9174;SDS011;54374;50.196;8.050;2022-09-06T02:22:10;2.67;;;1.47;;
9174;SDS011;54374;50.196;8.050;2022-09-06T02:24:40;3.03;;;1.53;;
9174;SDS011;54374;50.196;8.050;2022-09-06T02:27:09;2.93;;;1.23;;
9174;SDS011;54374;50.196;8.050;2022-09-06T02:29:38;2.60;;;1.33;;
9174;SDS011;54374;50.196;8.050;2022-09-06T02:32:06;4.70;;;1.90;;
9174;SDS011;54374;50.196;8.050;2022-09-06T02:34:39;1.43;;;1.17;;
9174;SDS011;54374;50.196;8.050;2022-09-06T02:37:07;2.53;;;1.30;;
9174;SDS011;54374;50.196;8.050;2022-09-06T02:39:36;1.13;;;1.13;;
9174;SDS011;54374;50.196;8.050;2022-09-06T02:42:04;1.60;;;1.17;;
9174;SDS011;54374;50.196;8.050;2022-09-06T02:44:33;5.47;;;1.03;;
9174;SDS011;54374;50.196;8.050;2022-09-06T02:47:02;2.77;;;1.03;;
9174;SDS011;54374;50.196;8.050;2022-09-06T02:49:30;1.37;;;1.03;;
9174;SDS011;54374;50.196;8.050;2022-09-06T02:51:58;1.47;;;1.00;;
9174;SDS011;54374;50.196;8.050;2022-09-06T02:54:25;1.27;;;1.00;;
9174;SDS011;54374;50.196;8.050;2022-09-06T02:56:52;1.40;;;1.20;;
9174;SDS011;54374;50.196;8.050;2022-09-06T02:59:19;1.67;;;1.00;;
9174;SDS011;54374;50.196;8.050;2022-09-06T03:01:46;1.17;;;1.07;;
9174;SDS011;54374;50.196;8.050;2022-09-06T03:04:15;1.23;;;0.93;;
9174;SDS011;54374;50.196;8.050;2022-09-06T03:06:42;1.90;;;1.33;;
9174;SDS011;54374;50.196;8.050;2022-09-06T03:09:09;5.13;;;1.43;;
9174;SDS011;54374;50.196;8.050;2022-09-06T03:11:36;3.73;;;1.20;;
9174;SDS011;54374;50.196;8.050;2022-09-06T03:14:03;2.43;;;1.20;;
9174;SDS011;54374;50.196;8.050;2022-09-06T03:16:30;2.00;;;1.10;;
9174;SDS011;54374;50.196;8.050;2022-09-06T03:18:58;1.57;;;1.13;;
9174;SDS011;54374;50.196;8.050;2022-09-06T03:21:26;1.47;;;1.30;;
9174;SDS011;54374;50.196;8.050;2022-09-06T03:23:53;1.77;;;1.40;;
9174;SDS011;54374;50.196;8.050;2022-09-06T03:26:20;1.90;;;1.10;;
9174;SDS011;54374;50.196;8.050;2022-09-06T03:28:50;1.50;;;1.40;;
9174;SDS011;54374;50.196;8.050;2022-09-06T03:31:17;0.83;;;0.83;;
9174;SDS011;54374;50.196;8.050;2022-09-06T03:33:44;1.20;;;1.10;;
9174;SDS011;54374;50.196;8.050;2022-09-06T03:36:12;1.33;;;1.23;;
9174;SDS011;54374;50.196;8.050;2022-09-06T03:38:42;1.33;;;1.20;;
9174;SDS011;54374;50.196;8.050;2022-09-06T03:41:09;1.27;;;1.00;;
9174;SDS011;54374;50.196;8.050;2022-09-06T03:43:37;2.00;;;1.23;;
9174;SDS011;54374;50.196;8.050;2022-09-06T03:46:04;1.30;;;1.00;;
9174;SDS011;54374;50.196;8.050;2022-09-06T03:48:36;1.40;;;1.10;;
9174;SDS011;54374;50.196;8.050;2022-09-06T03:51:03;1.50;;;1.17;;
9174;SDS011;54374;50.196;8.050;2022-09-06T03:53:30;1.70;;;1.30;;
9174;SDS011;54374;50.196;8.050;2022-09-06T03:55:59;1.80;;;1.50;;
9174;SDS011;54374;50.196;8.050;2022-09-06T03:58:28;2.40;;;1.33;;
9174;SDS011;54374;50.196;8.050;2022-09-06T04:00:59;3.13;;;1.40;;
9174;SDS011;54374;50.196;8.050;2022-09-06T04:03:30;1.23;;;1.10;;
9174;SDS011;54374;50.196;8.050;2022-09-06T04:05:58;2.00;;;1.30;;
9174;SDS011;54374;50.196;8.050;2022-09-06T04:08:25;1.93;;;1.10;;
9174;SDS011;54374;50.196;8.050;2022-09-06T04:10:52;1.53;;;0.90;;
9174;SDS011;54374;50.196;8.050;2022-09-06T04:13:22;1.10;;;1.00;;
9174;SDS011;54374;50.196;8.050;2022-09-06T04:15:49;1.40;;;1.20;;
9174;SDS011;54374;50.196;8.050;2022-09-06T04:18:18;3.10;;;1.20;;
9174;SDS011;54374;50.196;8.050;2022-09-06T04:20:46;1.17;;;1.10;;
9174;SDS011;54374;50.196;8.050;2022-09-06T04:23:14;4.17;;;1.90;;
9174;SDS011;54374;50.196;8.050;2022-09-06T04:25:44;1.27;;;1.10;;
9174;SDS011;54374;50.196;8.050;2022-09-06T04:28:11;1.40;;;1.30;;
9174;SDS011;54374;50.196;8.050;2022-09-06T04:30:40;2.40;;;1.23;;
9174;SDS011;54374;50.196;8.050;2022-09-06T04:33:07;4.50;;;1.23;;
9174;SDS011;54374;50.196;8.050;2022-09-06T04:35:34;2.13;;;1.87;;
9174;SDS011;54374;50.196;8.050;2022-09-06T04:38:02;1.30;;;1.20;;
9174;SDS011;54374;50.196;8.050;2022-09-06T04:40:29;1.10;;;1.00;;
9174;SDS011;54374;50.196;8.050;2022-09-06T04:42:56;3.90;;;1.77;;
9174;SDS011;54374;50.196;8.050;2022-09-06T04:45:23;1.50;;;1.20;;
9174;SDS011;54374;50.196;8.050;2022-09-06T04:47:52;1.50;;;1.40;;
9174;SDS011;54374;50.196;8.050;2022-09-06T04:50:19;6.80;;;1.07;;
9174;SDS011;54374;50.196;8.050;2022-09-06T04:52:46;1.27;;;1.17;;
9174;SDS011;54374;50.196;8.050;2022-09-06T04:55:13;1.73;;;1.40;;
9174;SDS011;54374;50.196;8.050;2022-09-06T04:57:40;1.73;;;1.30;;
9174;SDS011;54374;50.196;8.050;2022-09-06T05:00:08;1.60;;;1.17;;
9174;SDS011;54374;50.196;8.050;2022-09-06T05:02:36;1.07;;;0.97;;
9174;SDS011;54374;50.196;8.050;2022-09-06T05:05:05;2.73;;;1.43;;
9174;SDS011;54374;50.196;8.050;2022-09-06T05:07:32;1.23;;;1.20;;
9174;SDS011;54374;50.196;8.050;2022-09-06T05:09:59;1.07;;;1.00;;
9174;SDS011;54374;50.196;8.050;2022-09-06T05:12:26;1.27;;;1.20;;
9174;SDS011;54374;50.196;8.050;2022-09-06T05:14:54;1.57;;;1.40;;
9174;SDS011;54374;50.196;8.050;2022-09-06T05:17:21;2.43;;;1.70;;
9174;SDS011;54374;50.196;8.050;2022-09-06T05:19:48;2.70;;;1.50;;
9174;SDS011;54374;50.196;8.050;2022-09-06T05:22:17;2.70;;;1.40;;
9174;SDS011;54374;50.196;8.050;2022-09-06T05:24:44;1.53;;;1.10;;
9174;SDS011;54374;50.196;8.050;2022-09-06T05:27:11;2.70;;;1.27;;
9174;SDS011;54374;50.196;8.050;2022-09-06T05:29:38;2.38;;;1.92;;
9174;SDS011;54374;50.196;8.050;2022-09-06T05:32:05;1.33;;;1.17;;
9174;SDS011;54374;50.196;8.050;2022-09-06T05:34:32;1.50;;;1.40;;
9174;SDS011;54374;50.196;8.050;2022-09-06T05:36:59;1.93;;;1.43;;
9174;SDS011;54374;50.196;8.050;2022-09-06T05:39:28;2.92;;;1.25;;
9174;SDS011;54374;50.196;8.050;2022-09-06T05:41:55;3.20;;;1.07;;
9174;SDS011;54374;50.196;8.050;2022-09-06T05:44:23;1.33;;;1.23;;
9174;SDS011;54374;50.196;8.050;2022-09-06T05:46:50;1.20;;;1.20;;
9174;SDS011;54374;50.196;8.050;2022-09-06T05:49:17;3.00;;;1.60;;
9174;SDS011;54374;50.196;8.050;2022-09-06T05:51:48;2.80;;;1.30;;
9174;SDS011;54374;50.196;8.050;2022-09-06T05:54:16;1.40;;;1.30;;
9174;SDS011;54374;50.196;8.050;2022-09-06T05:56:44;1.60;;;1.47;;
9174;SDS011;54374;50.196;8.050;2022-09-06T05:59:11;1.88;;;1.63;;
9174;SDS011;54374;50.196;8.050;2022-09-06T06:01:45;1.27;;;1.17;;
9174;SDS011;54374;50.196;8.050;2022-09-06T06:04:13;1.20;;;1.10;;
9174;SDS011;54374;50.196;8.050;2022-09-06T06:06:42;1.17;;;1.10;;
9174;SDS011;54374;50.196;8.050;2022-09-06T06:09:11;2.20;;;1.07;;
9174;SDS011;54374;50.196;8.050;2022-09-06T06:11:38;1.77;;;1.40;;
9174;SDS011;54374;50.196;8.050;2022-09-06T06:14:07;1.93;;;1.40;;
9174;SDS011;54374;50.196;8.050;2022-09-06T06:16:35;1.63;;;1.37;;
9174;SDS011;54374;50.196;8.050;2022-09-06T06:19:02;1.70;;;1.35;;
9174;SDS011;54374;50.196;8.050;2022-09-06T06:21:30;1.97;;;1.77;;
9174;SDS011;54374;50.196;8.050;2022-09-06T06:23:59;1.80;;;1.40;;
9174;SDS011;54374;50.196;8.050;2022-09-06T06:26:28;1.13;;;1.13;;
9174;SDS011;54374;50.196;8.050;2022-09-06T06:28:57;1.53;;;1.20;;
9174;SDS011;54374;50.196;8.050;2022-09-06T06:31:29;1.20;;;1.10;;
9174;SDS011;54374;50.196;8.050;2022-09-06T06:33:58;2.63;;;1.47;;
9174;SDS011;54374;50.196;8.050;2022-09-06T06:36:28;1.33;;;1.17;;
9174;SDS011;54374;50.196;8.050;2022-09-06T06:38:58;3.20;;;1.17;;
9174;SDS011;54374;50.196;8.050;2022-09-06T06:41:27;1.30;;;1.20;;
9174;SDS011;54374;50.196;8.050;2022-09-06T06:43:56;1.40;;;1.30;;
9174;SDS011;54374;50.196;8.050;2022-09-06T06:46:25;2.10;;;1.33;;
9174;SDS011;54374;50.196;8.050;2022-09-06T06:48:55;1.63;;;1.33;;
9174;SDS011;54374;50.196;8.050;2022-09-06T06:51:22;1.43;;;1.20;;
9174;SDS011;54374;50.196;8.050;2022-09-06T06:53:50;1.40;;;1.30;;
9174;SDS011;54374;50.196;8.050;2022-09-06T06:56:18;1.50;;;1.40;;
9174;SDS011;54374;50.196;8.050;2022-09-06T06:58:47;1.30;;;1.20;;
9174;SDS011;54374;50.196;8.050;2022-09-06T07:01:16;1.37;;;1.27;;
9174;SDS011;54374;50.196;8.050;2022-09-06T07:03:45;3.63;;;1.50;;
9174;SDS011;54374;50.196;8.050;2022-09-06T07:06:14;3.13;;;1.43;;
9174;SDS011;54374;50.196;8.050;2022-09-06T07:08:42;1.77;;;1.30;;
9174;SDS011;54374;50.196;8.050;2022-09-06T07:11:10;1.93;;;1.60;;
9174;SDS011;54374;50.196;8.050;2022-09-06T07:13:38;1.43;;;1.33;;
9174;SDS011;54374;50.196;8.050;2022-09-06T07:16:06;2.70;;;1.50;;
9174;SDS011;54374;50.196;8.050;2022-09-06T07:18:38;3.10;;;1.87;;
9174;SDS011;54374;50.196;8.050;2022-09-06T07:21:07;1.53;;;1.30;;
9174;SDS011;54374;50.196;8.050;2022-09-06T07:23:38;7.47;;;1.73;;
9174;SDS011;54374;50.196;8.050;2022-09-06T07:26:05;1.60;;;1.50;;
9174;SDS011;54374;50.196;8.050;2022-09-06T07:28:32;1.53;;;1.43;;
9174;SDS011;54374;50.196;8.050;2022-09-06T07:30:59;2.10;;;1.57;;
9174;SDS011;54374;50.196;8.050;2022-09-06T07:33:26;6.93;;;1.50;;
9174;SDS011;54374;50.196;8.050;2022-09-06T07:35:58;3.43;;;2.50;;
9174;SDS011;54374;50.196;8.050;2022-09-06T07:38:27;4.53;;;1.77;;
9174;SDS011;54374;50.196;8.050;2022-09-06T07:40:56;1.80;;;1.30;;
9174;SDS011;54374;50.196;8.050;2022-09-06T11:35:32;1.23;;;1.13;;
9174;SDS011;54374;50.196;8.050;2022-09-06T11:38:01;1.67;;;1.50;;
9174;SDS011;54374;50.196;8.050;2022-09-06T11:40:40;1.43;;;1.30;;
9174;SDS011;54374;50.196;8.050;2022-09-06T11:43:11;2.20;;;1.77;;
9174;SDS011;54374;50.196;8.050;2022-09-06T11:45:44;3.40;;;1.70;;
9174;SDS011;54374;50.196;8.050;2022-09-06T11:48:30;3.90;;;2.13;;
9174;SDS011;54374;50.196;8.050;2022-09-06T11:51:04;1.70;;;1.60;;
9174;SDS011;54374;50.196;8.050;2022-09-06T11:56:46;1.73;;;1.50;;
9174;SDS011;54374;50.196;8.050;2022-09-06T11:59:24;2.83;;;1.63;;
9174;SDS011;54374;50.196;8.050;2022-09-06T12:02:28;7.43;;;4.27;;
9174;SDS011;54374;50.196;8.050;2022-09-06T12:05:21;2.20;;;1.93;;
9174;SDS011;54374;50.196;8.050;2022-09-06T12:14:02;1.93;;;1.43;;
9174;SDS011;54374;50.196;8.050;2022-09-06T12:19:50;2.30;;;1.20;;
9174;SDS011;54374;50.196;8.050;2022-09-06T12:28:28;1.53;;;1.33;;
9174;SDS011;54374;50.196;8.050;2022-09-06T12:31:02;2.60;;;1.50;;
9174;SDS011;54374;50.196;8.050;2022-09-06T12:33:48;2.40;;;1.30;;
9174;SDS011;54374;50.196;8.050;2022-09-06T12:36:17;1.87;;;1.60;;
9174;SDS011;54374;50.196;8.050;2022-09-06T12:38:53;1.93;;;1.37;;
9174;SDS011;54374;50.196;8.050;2022-09-06T12:41:24;2.67;;;1.40;;
9174;SDS011;54374;50.196;8.050;2022-09-06T12:43:52;3.70;;;1.57;;
9174;SDS011;54374;50.196;8.050;2022-09-06T12:46:22;1.63;;;1.47;;
9174;SDS011;54374;50.196;8.050;2022-09-06T12:49:00;3.90;;;1.40;;
9174;SDS011;54374;50.196;8.050;2022-09-06T12:51:31;2.00;;;1.90;;
9174;SDS011;54374;50.196;8.050;2022-09-06T12:54:00;4.00;;;1.50;;
9174;SDS011;54374;50.196;8.050;2022-09-06T12:56:31;2.17;;;1.57;;
9174;SDS011;54374;50.196;8.050;2022-09-06T12:59:09;2.83;;;1.60;;
9174;SDS011;54374;50.196;8.050;2022-09-06T13:01:38;1.70;;;1.60;;
9174;SDS011;54374;50.196;8.050;2022-09-06T13:04:11;4.80;;;1.60;;
9174;SDS011;54374;50.196;8.050;2022-09-06T13:06:44;2.30;;;1.70;;
9174;SDS011;54374;50.196;8.050;2022-09-06T13:09:13;2.57;;;2.20;;
9174;SDS011;54374;50.196;8.050;2022-09-06T13:11:45;3.00;;;1.60;;
9174;SDS011;54374;50.196;8.050;2022-09-06T13:14:16;2.20;;;1.70;;
9174;SDS011;54374;50.196;8.050;2022-09-06T13:16:47;3.20;;;2.07;;
9174;SDS011;54374;50.196;8.050;2022-09-06T13:19:17;8.03;;;1.87;;
9174;SDS011;54374;50.196;8.050;2022-09-06T13:21:54;1.53;;;1.43;;
9174;SDS011;54374;50.196;8.050;2022-09-06T13:24:23;3.50;;;1.70;;
9174;SDS011;54374;50.196;8.050;2022-09-06T13:26:53;2.30;;;1.90;;
9174;SDS011;54374;50.196;8.050;2022-09-06T13:29:21;2.93;;;2.20;;
9174;SDS011;54374;50.196;8.050;2022-09-06T13:31:50;2.60;;;1.80;;
9174;SDS011;54374;50.196;8.050;2022-09-06T13:34:19;3.10;;;2.30;;
9174;SDS011;54374;50.196;8.050;2022-09-06T13:36:47;2.30;;;2.10;;
9174;SDS011;54374;50.196;8.050;2022-09-06T13:39:30;2.80;;;1.80;;
9174;SDS011;54374;50.196;8.050;2022-09-06T13:42:01;2.73;;;1.77;;
9174;SDS011;54374;50.196;8.050;2022-09-06T13:44:32;2.03;;;1.80;;
9174;SDS011;54374;50.196;8.050;2022-09-06T13:47:00;2.70;;;2.00;;
9174;SDS011;54374;50.196;8.050;2022-09-06T13:49:27;1.97;;;1.77;;
9174;SDS011;54374;50.196;8.050;2022-09-06T13:51:56;4.60;;;2.13;;
9174;SDS011;54374;50.196;8.050;2022-09-06T13:54:26;6.47;;;2.00;;
9174;SDS011;54374;50.196;8.050;2022-09-06T13:56:54;4.60;;;2.23;;
9174;SDS011;54374;50.196;8.050;2022-09-06T13:59:24;9.80;;;2.70;;
9174;SDS011;54374;50.196;8.050;2022-09-06T14:01:55;5.17;;;1.73;;
9174;SDS011;54374;50.196;8.050;2022-09-06T14:04:29;2.90;;;1.50;;
9174;SDS011;54374;50.196;8.050;2022-09-06T14:06:57;5.20;;;2.20;;
9174;SDS011;54374;50.196;8.050;2022-09-06T14:09:24;6.73;;;2.43;;
9174;SDS011;54374;50.196;8.050;2022-09-06T14:11:51;4.87;;;2.40;;
9174;SDS011;54374;50.196;8.050;2022-09-06T14:14:19;4.60;;;1.40;;
9174;SDS011;54374;50.196;8.050;2022-09-06T14:16:48;4.67;;;2.13;;
9174;SDS011;54374;50.196;8.050;2022-09-06T14:19:17;9.73;;;2.73;;
9174;SDS011;54374;50.196;8.050;2022-09-06T14:21:46;16.90;;;3.40;;
9174;SDS011;54374;50.196;8.050;2022-09-06T14:24:13;5.43;;;2.00;;
9174;SDS011;54374;50.196;8.050;2022-09-06T14:26:41;9.10;;;3.03;;
9174;SDS011;54374;50.196;8.050;2022-09-06T14:29:09;9.40;;;3.37;;
9174;SDS011;54374;50.196;8.050;2022-09-06T14:31:36;29.97;;;4.53;;
9174;SDS011;54374;50.196;8.050;2022-09-06T14:34:05;23.63;;;5.20;;
9174;SDS011;54374;50.196;8.050;2022-09-06T14:36:32;9.10;;;3.10;;
9174;SDS011;54374;50.196;8.050;2022-09-06T14:39:00;39.80;;;6.10;;
9174;SDS011;54374;50.196;8.050;2022-09-06T14:41:28;6.13;;;2.80;;
9174;SDS011;54374;50.196;8.050;2022-09-06T14:43:56;5.20;;;3.10;;
9174;SDS011;54374;50.196;8.050;2022-09-06T14:46:24;5.93;;;2.37;;
9174;SDS011;54374;50.196;8.050;2022-09-06T14:48:56;3.80;;;2.53;;
9174;SDS011;54374;50.196;8.050;2022-09-06T14:51:26;7.67;;;2.70;;
9174;SDS011;54374;50.196;8.050;2022-09-06T14:53:55;5.73;;;2.30;;
9174;SDS011;54374;50.196;8.050;2022-09-06T14:56:26;4.57;;;2.40;;
9174;SDS011;54374;50.196;8.050;2022-09-06T14:58:54;2.73;;;2.00;;
9174;SDS011;54374;50.196;8.050;2022-09-06T15:01:25;7.73;;;3.20;;
9174;SDS011;54374;50.196;8.050;2022-09-06T15:03:54;6.33;;;2.30;;
9174;SDS011;54374;50.196;8.050;2022-09-06T15:06:23;3.03;;;2.00;;
9174;SDS011;54374;50.196;8.050;2022-09-06T15:08:53;6.57;;;1.90;;
9174;SDS011;54374;50.196;8.050;2022-09-06T15:11:27;11.43;;;2.23;;
9174;SDS011;54374;50.196;8.050;2022-09-06T15:13:55;2.63;;;1.50;;
9174;SDS011;54374;50.196;8.050;2022-09-06T15:16:23;4.17;;;1.87;;
9174;SDS011;54374;50.196;8.050;2022-09-06T15:18:50;2.27;;;2.07;;
9174;SDS011;54374;50.196;8.050;2022-09-06T15:21:19;5.93;;;2.70;;
9174;SDS011;54374;50.196;8.050;2022-09-06T15:23:49;6.00;;;2.20;;
9174;SDS011;54374;50.196;8.050;2022-09-06T15:26:19;7.13;;;2.53;;
9174;SDS011;54374;50.196;8.050;2022-09-06T15:28:47;4.23;;;2.77;;
9174;SDS011;54374;50.196;8.050;2022-09-06T15:31:15;5.50;;;2.70;;
9174;SDS011;54374;50.196;8.050;2022-09-06T15:33:43;6.03;;;2.70;;
9174;SDS011;54374;50.196;8.050;2022-09-06T15:36:13;5.33;;;2.63;;
9174;SDS011;54374;50.196;8.050;2022-09-06T15:38:41;7.17;;;2.80;;
9174;SDS011;54374;50.196;8.050;2022-09-06T15:41:16;5.10;;;2.20;;
9174;SDS011;54374;50.196;8.050;2022-09-06T15:43:46;4.13;;;2.90;;
9174;SDS011;54374;50.196;8.050;2022-09-06T15:46:14;3.77;;;1.87;;
9174;SDS011;54374;50.196;8.050;2022-09-06T15:48:43;7.23;;;2.77;;
9174;SDS011;54374;50.196;8.050;2022-09-06T15:51:13;6.37;;;2.60;;
9174;SDS011;54374;50.196;8.050;2022-09-06T15:53:41;6.00;;;2.47;;
9174;SDS011;54374;50.196;8.050;2022-09-06T15:56:09;8.20;;;2.63;;
9174;SDS011;54374;50.196;8.050;2022-09-06T15:58:39;9.70;;;2.57;;
9174;SDS011;54374;50.196;8.050;2022-09-06T16:01:07;10.03;;;2.60;;
9174;SDS011;54374;50.196;8.050;2022-09-06T16:03:35;2.97;;;2.53;;
9174;SDS011;54374;50.196;8.050;2022-09-06T16:06:03;7.07;;;2.30;;
9174;SDS011;54374;50.196;8.050;2022-09-06T16:08:32;4.73;;;2.57;;
9174;SDS011;54374;50.196;8.050;2022-09-06T16:11:04;6.77;;;2.73;;
9174;SDS011;54374;50.196;8.050;2022-09-06T16:13:34;3.90;;;2.40;;
9174;SDS011;54374;50.196;8.050;2022-09-06T16:16:03;2.80;;;2.20;;
9174;SDS011;54374;50.196;8.050;2022-09-06T16:18:32;8.10;;;2.57;;
9174;SDS011;54374;50.196;8.050;2022-09-06T16:21:02;4.50;;;2.50;;
9174;SDS011;54374;50.196;8.050;2022-09-06T16:23:31;4.60;;;2.70;;
9174;SDS011;54374;50.196;8.050;2022-09-06T16:25:59;4.33;;;2.40;;
9174;SDS011;54374;50.196;8.050;2022-09-06T16:28:27;8.30;;;2.37;;
9174;SDS011;54374;50.196;8.050;2022-09-06T16:30:55;5.30;;;2.60;;
9174;SDS011;54374;50.196;8.050;2022-09-06T16:33:26;4.20;;;2.33;;
9174;SDS011;54374;50.196;8.050;2022-09-06T16:35:53;4.17;;;2.70;;
9174;SDS011;54374;50.196;8.050;2022-09-06T16:38:21;2.83;;;1.97;;
9174;SDS011;54374;50.196;8.050;2022-09-06T16:40:49;4.80;;;2.70;;
9174;SDS011;54374;50.196;8.050;2022-09-06T16:43:16;3.97;;;2.90;;
9174;SDS011;54374;50.196;8.050;2022-09-06T16:45:53;2.57;;;2.37;;
9174;SDS011;54374;50.196;8.050;2022-09-06T16:48:22;3.40;;;2.27;;
9174;SDS011;54374;50.196;8.050;2022-09-06T16:50:50;6.03;;;2.57;;
9174;SDS011;54374;50.196;8.050;2022-09-06T16:53:17;7.07;;;2.57;;
9174;SDS011;54374;50.196;8.050;2022-09-06T16:55:44;6.50;;;2.83;;
9174;SDS011;54374;50.196;8.050;2022-09-06T16:58:12;4.33;;;2.33;;
9174;SDS011;54374;50.196;8.050;2022-09-06T17:00:39;4.13;;;2.23;;
9174;SDS011;54374;50.196;8.050;2022-09-06T17:03:08;7.73;;;2.63;;
9174;SDS011;54374;50.196;8.050;2022-09-06T17:05:37;3.07;;;2.40;;
9174;SDS011;54374;50.196;8.050;2022-09-06T17:08:04;3.07;;;2.67;;
9174;SDS011;54374;50.196;8.050;2022-09-06T17:10:31;3.73;;;2.60;;
9174;SDS011;54374;50.196;8.050;2022-09-06T17:13:02;3.37;;;2.07;;
9174;SDS011;54374;50.196;8.050;2022-09-06T17:15:29;5.33;;;2.87;;
9174;SDS011;54374;50.196;8.050;2022-09-06T17:18:18;2.90;;;2.17;;
9174;SDS011;54374;50.196;8.050;2022-09-06T17:20:52;2.80;;;2.07;;
9174;SDS011;54374;50.196;8.050;2022-09-06T17:23:20;2.60;;;2.40;;
9174;SDS011;54374;50.196;8.050;2022-09-06T17:25:48;8.23;;;2.30;;
9174;SDS011;54374;50.196;8.050;2022-09-06T17:28:15;4.37;;;2.47;;
9174;SDS011;54374;50.196;8.050;2022-09-06T17:30:42;4.23;;;2.03;;
9174;SDS011;54374;50.196;8.050;2022-09-06T17:33:09;4.70;;;2.23;;
9174;SDS011;54374;50.196;8.050;2022-09-06T17:35:39;2.77;;;2.20;;
9174;SDS011;54374;50.196;8.050;2022-09-06T17:38:08;4.03;;;2.43;;
9174;SDS011;54374;50.196;8.050;2022-09-06T17:40:35;4.23;;;2.20;;
9174;SDS011;54374;50.196;8.050;2022-09-06T17:43:02;3.80;;;2.50;;
9174;SDS011;54374;50.196;8.050;2022-09-06T17:45:34;3.20;;;2.00;;
9174;SDS011;54374;50.196;8.050;2022-09-06T17:48:02;5.13;;;2.40;;
9174;SDS011;54374;50.196;8.050;2022-09-06T17:50:29;4.07;;;2.00;;
9174;SDS011;54374;50.196;8.050;2022-09-06T17:52:58;3.80;;;2.37;;
9174;SDS011;54374;50.196;8.050;2022-09-06T17:55:25;2.53;;;2.10;;
9174;SDS011;54374;50.196;8.050;2022-09-06T17:57:54;2.40;;;2.20;;
9174;SDS011;54374;50.196;8.050;2022-09-06T18:00:21;2.30;;;2.10;;
9174;SDS011;54374;50.196;8.050;2022-09-06T18:02:49;4.20;;;2.30;;
9174;SDS011;54374;50.196;8.050;2022-09-06T18:05:16;8.10;;;1.80;;
9174;SDS011;54374;50.196;8.050;2022-09-06T18:07:43;3.13;;;2.23;;
9174;SDS011;54374;50.196;8.050;2022-09-06T18:10:13;2.50;;;2.30;;
9174;SDS011;54374;50.196;8.050;2022-09-06T18:12:41;2.20;;;2.07;;
9174;SDS011;54374;50.196;8.050;2022-09-06T18:15:09;2.80;;;2.03;;
9174;SDS011;54374;50.196;8.050;2022-09-06T18:17:36;5.87;;;2.60;;
9174;SDS011;54374;50.196;8.050;2022-09-06T18:20:04;2.30;;;2.07;;
9174;SDS011;54374;50.196;8.050;2022-09-06T18:22:31;9.13;;;2.30;;
9174;SDS011;54374;50.196;8.050;2022-09-06T18:24:59;2.00;;;1.70;;
9174;SDS011;54374;50.196;8.050;2022-09-06T18:27:30;3.90;;;2.17;;
9174;SDS011;54374;50.196;8.050;2022-09-06T18:29:58;2.23;;;2.03;;
9174;SDS011;54374;50.196;8.050;2022-09-06T18:32:27;2.47;;;2.27;;
9174;SDS011;54374;50.196;8.050;2022-09-06T18:34:54;4.23;;;2.40;;
9174;SDS011;54374;50.196;8.050;2022-09-06T18:37:21;2.67;;;2.30;;
9174;SDS011;54374;50.196;8.050;2022-09-06T18:39:48;2.70;;;2.47;;
9174;SDS011;54374;50.196;8.050;2022-09-06T18:42:15;4.27;;;2.43;;
9174;SDS011;54374;50.196;8.050;2022-09-06T18:44:44;3.13;;;2.83;;
9174;SDS011;54374;50.196;8.050;2022-09-06T18:47:11;5.83;;;2.10;;
9174;SDS011;54374;50.196;8.050;2022-09-06T18:49:38;4.00;;;1.80;;
9174;SDS011;54374;50.196;8.050;2022-09-06T18:52:06;2.60;;;2.23;;
9174;SDS011;54374;50.196;8.050;2022-09-06T18:54:33;4.33;;;2.20;;
9174;SDS011;54374;50.196;8.050;2022-09-06T18:57:00;2.80;;;2.50;;
9174;SDS011;54374;50.196;8.050;2022-09-06T18:59:28;2.40;;;2.20;;
9174;SDS011;54374;50.196;8.050;2022-09-06T19:01:57;7.50;;;2.60;;
9174;SDS011;54374;50.196;8.050;2022-09-06T19:04:24;1.90;;;1.73;;
9174;SDS011;54374;50.196;8.050;2022-09-06T19:06:51;5.63;;;2.00;;
9174;SDS011;54374;50.196;8.050;2022-09-06T19:09:18;8.50;;;2.60;;
9174;SDS011;54374;50.196;8.050;2022-09-06T19:11:45;9.00;;;2.43;;
9174;SDS011;54374;50.196;8.050;2022-09-06T19:14:15;5.70;;;2.20;;
9174;SDS011;54374;50.196;8.050;2022-09-06T19:16:43;17.73;;;2.93;;
9174;SDS011;54374;50.196;8.050;2022-09-06T19:19:12;42.13;;;3.90;;
9174;SDS011;54374;50.196;8.050;2022-09-06T19:21:39;14.13;;;3.20;;
9174;SDS011;54374;50.196;8.050;2022-09-06T19:24:06;12.17;;;2.77;;
9174;SDS011;54374;50.196;8.050;2022-09-06T19:26:35;23.60;;;2.90;;